sensor_id;sensor_type;location;lat;lon;timestamp;P1;durP1;ratioP1;P2;durP2;ratioP2
25249;SDS011;13201;51.148;13.738;2022-08-30T00:00:43;5.28;;;3.38;;
25249;SDS011;13201;51.148;13.738;2022-08-30T00:03:37;4.93;;;2.90;;
25249;SDS011;13201;51.148;13.738;2022-08-30T00:06:05;7.82;;;3.22;;
25249;SDS011;13201;51.148;13.738;2022-08-30T00:08:33;9.57;;;3.60;;
25249;SDS011;13201;51.148;13.738;2022-08-30T00:11:00;7.60;;;3.20;;
25249;SDS011;13201;51.148;13.738;2022-08-30T00:13:28;5.00;;;2.97;;
25249;SDS011;13201;51.148;13.738;2022-08-30T00:15:54;7.53;;;3.55;;
25249;SDS011;13201;51.148;13.738;2022-08-30T00:18:20;5.40;;;3.20;;
25249;SDS011;13201;51.148;13.738;2022-08-30T00:20:47;6.22;;;3.10;;
25249;SDS011;13201;51.148;13.738;2022-08-30T00:23:13;5.80;;;3.10;;
25249;SDS011;13201;51.148;13.738;2022-08-30T00:25:41;5.07;;;3.22;;
25249;SDS011;13201;51.148;13.738;2022-08-30T00:28:08;4.85;;;3.08;;
25249;SDS011;13201;51.148;13.738;2022-08-30T00:30:34;5.05;;;2.97;;
25249;SDS011;13201;51.148;13.738;2022-08-30T00:33:00;5.35;;;2.78;;
25249;SDS011;13201;51.148;13.738;2022-08-30T00:35:26;3.92;;;2.72;;
25249;SDS011;13201;51.148;13.738;2022-08-30T00:37:52;7.13;;;3.03;;
25249;SDS011;13201;51.148;13.738;2022-08-30T00:40:18;7.18;;;3.10;;
25249;SDS011;13201;51.148;13.738;2022-08-30T00:42:45;4.07;;;2.88;;
25249;SDS011;13201;51.148;13.738;2022-08-30T00:47:37;5.07;;;2.80;;
25249;SDS011;13201;51.148;13.738;2022-08-30T00:50:03;4.22;;;2.80;;
25249;SDS011;13201;51.148;13.738;2022-08-30T00:52:32;4.05;;;2.88;;
25249;SDS011;13201;51.148;13.738;2022-08-30T00:59:52;5.13;;;2.92;;
25249;SDS011;13201;51.148;13.738;2022-08-30T01:02:19;4.90;;;2.83;;
25249;SDS011;13201;51.148;13.738;2022-08-30T01:04:46;3.80;;;3.00;;
25249;SDS011;13201;51.148;13.738;2022-08-30T01:32:20;7.82;;;3.10;;
25249;SDS011;13201;51.148;13.738;2022-08-30T01:34:49;5.43;;;3.00;;
25249;SDS011;13201;51.148;13.738;2022-08-30T01:37:16;3.80;;;2.53;;
25249;SDS011;13201;51.148;13.738;2022-08-30T01:39:54;4.55;;;2.90;;
25249;SDS011;13201;51.148;13.738;2022-08-30T01:42:20;4.75;;;2.80;;
25249;SDS011;13201;51.148;13.738;2022-08-30T01:44:46;8.70;;;2.77;;
25249;SDS011;13201;51.148;13.738;2022-08-30T01:47:12;6.13;;;3.03;;
25249;SDS011;13201;51.148;13.738;2022-08-30T01:49:39;4.40;;;3.07;;
25249;SDS011;13201;51.148;13.738;2022-08-30T01:52:05;4.93;;;2.80;;
25249;SDS011;13201;51.148;13.738;2022-08-30T01:54:32;6.07;;;3.07;;
25249;SDS011;13201;51.148;13.738;2022-08-30T01:57:00;7.65;;;3.08;;
25249;SDS011;13201;51.148;13.738;2022-08-30T01:59:26;4.45;;;2.95;;
25249;SDS011;13201;51.148;13.738;2022-08-30T02:01:52;5.88;;;3.22;;
25249;SDS011;13201;51.148;13.738;2022-08-30T02:04:18;7.85;;;2.75;;
25249;SDS011;13201;51.148;13.738;2022-08-30T02:06:43;4.97;;;2.67;;
25249;SDS011;13201;51.148;13.738;2022-08-30T02:09:10;3.87;;;2.90;;
25249;SDS011;13201;51.148;13.738;2022-08-30T02:11:37;3.83;;;2.50;;
25249;SDS011;13201;51.148;13.738;2022-08-30T02:14:03;5.07;;;2.97;;
25249;SDS011;13201;51.148;13.738;2022-08-30T02:16:30;4.35;;;2.60;;
25249;SDS011;13201;51.148;13.738;2022-08-30T02:18:55;3.25;;;2.55;;
25249;SDS011;13201;51.148;13.738;2022-08-30T02:21:21;4.47;;;2.78;;
25249;SDS011;13201;51.148;13.738;2022-08-30T02:23:48;4.13;;;2.80;;
25249;SDS011;13201;51.148;13.738;2022-08-30T02:26:15;5.77;;;2.77;;
25249;SDS011;13201;51.148;13.738;2022-08-30T02:28:41;5.07;;;2.60;;
25249;SDS011;13201;51.148;13.738;2022-08-30T02:31:07;7.03;;;3.30;;
25249;SDS011;13201;51.148;13.738;2022-08-30T02:33:33;7.05;;;2.80;;
25249;SDS011;13201;51.148;13.738;2022-08-30T02:35:59;4.40;;;2.95;;
25249;SDS011;13201;51.148;13.738;2022-08-30T02:38:25;5.78;;;2.90;;
25249;SDS011;13201;51.148;13.738;2022-08-30T02:40:51;6.22;;;3.00;;
25249;SDS011;13201;51.148;13.738;2022-08-30T02:43:17;7.38;;;2.95;;
25249;SDS011;13201;51.148;13.738;2022-08-30T02:45:42;7.28;;;2.97;;
25249;SDS011;13201;51.148;13.738;2022-08-30T02:48:08;5.03;;;2.90;;
25249;SDS011;13201;51.148;13.738;2022-08-30T02:50:37;6.60;;;3.08;;
25249;SDS011;13201;51.148;13.738;2022-08-30T02:53:04;5.07;;;2.90;;
25249;SDS011;13201;51.148;13.738;2022-08-30T02:55:30;4.65;;;3.15;;
25249;SDS011;13201;51.148;13.738;2022-08-30T02:57:56;7.03;;;2.88;;
25249;SDS011;13201;51.148;13.738;2022-08-30T03:00:21;4.07;;;2.70;;
25249;SDS011;13201;51.148;13.738;2022-08-30T03:02:47;6.88;;;3.05;;
25249;SDS011;13201;51.148;13.738;2022-08-30T03:05:13;7.43;;;3.47;;
25249;SDS011;13201;51.148;13.738;2022-08-30T03:07:40;6.03;;;3.38;;
25249;SDS011;13201;51.148;13.738;2022-08-30T03:10:06;5.25;;;2.80;;
25249;SDS011;13201;51.148;13.738;2022-08-30T03:12:33;3.70;;;2.93;;
25249;SDS011;13201;51.148;13.738;2022-08-30T03:14:59;6.13;;;3.08;;
25249;SDS011;13201;51.148;13.738;2022-08-30T03:17:24;9.30;;;3.63;;
25249;SDS011;13201;51.148;13.738;2022-08-30T03:19:50;4.55;;;3.28;;
25249;SDS011;13201;51.148;13.738;2022-08-30T03:22:16;4.38;;;3.00;;
25249;SDS011;13201;51.148;13.738;2022-08-30T03:24:42;4.25;;;3.00;;
25249;SDS011;13201;51.148;13.738;2022-08-30T03:27:09;5.43;;;2.95;;
25249;SDS011;13201;51.148;13.738;2022-08-30T03:29:36;7.43;;;3.38;;
25249;SDS011;13201;51.148;13.738;2022-08-30T03:32:03;7.32;;;3.30;;
25249;SDS011;13201;51.148;13.738;2022-08-30T03:34:30;5.93;;;3.17;;
25249;SDS011;13201;51.148;13.738;2022-08-30T03:36:56;7.25;;;3.08;;
25249;SDS011;13201;51.148;13.738;2022-08-30T03:39:22;7.38;;;3.13;;
25249;SDS011;13201;51.148;13.738;2022-08-30T03:41:49;5.65;;;3.17;;
25249;SDS011;13201;51.148;13.738;2022-08-30T03:44:15;7.10;;;3.30;;
25249;SDS011;13201;51.148;13.738;2022-08-30T03:46:41;9.10;;;2.97;;
25249;SDS011;13201;51.148;13.738;2022-08-30T03:49:07;7.47;;;3.20;;
25249;SDS011;13201;51.148;13.738;2022-08-30T03:51:33;7.50;;;3.60;;
25249;SDS011;13201;51.148;13.738;2022-08-30T03:53:59;6.82;;;3.15;;
25249;SDS011;13201;51.148;13.738;2022-08-30T03:56:25;8.50;;;3.28;;
25249;SDS011;13201;51.148;13.738;2022-08-30T03:58:51;8.23;;;3.20;;
25249;SDS011;13201;51.148;13.738;2022-08-30T04:01:17;7.13;;;2.97;;
25249;SDS011;13201;51.148;13.738;2022-08-30T04:03:43;4.93;;;3.25;;
25249;SDS011;13201;51.148;13.738;2022-08-30T04:06:09;6.80;;;2.97;;
25249;SDS011;13201;51.148;13.738;2022-08-30T04:08:35;8.90;;;3.83;;
25249;SDS011;13201;51.148;13.738;2022-08-30T04:11:01;4.55;;;2.92;;
25249;SDS011;13201;51.148;13.738;2022-08-30T04:13:27;4.60;;;3.35;;
25249;SDS011;13201;51.148;13.738;2022-08-30T04:15:53;5.57;;;3.10;;
25249;SDS011;13201;51.148;13.738;2022-08-30T04:18:19;5.97;;;3.27;;
25249;SDS011;13201;51.148;13.738;2022-08-30T04:20:44;4.55;;;3.33;;
25249;SDS011;13201;51.148;13.738;2022-08-30T04:23:11;6.25;;;3.58;;
25249;SDS011;13201;51.148;13.738;2022-08-30T04:25:37;7.43;;;3.30;;
25249;SDS011;13201;51.148;13.738;2022-08-30T04:28:05;8.23;;;3.60;;
25249;SDS011;13201;51.148;13.738;2022-08-30T04:30:31;6.60;;;3.53;;
25249;SDS011;13201;51.148;13.738;2022-08-30T04:32:57;7.97;;;3.70;;
25249;SDS011;13201;51.148;13.738;2022-08-30T04:35:23;7.75;;;3.58;;
25249;SDS011;13201;51.148;13.738;2022-08-30T04:37:49;8.27;;;3.30;;
25249;SDS011;13201;51.148;13.738;2022-08-30T04:40:15;7.63;;;3.95;;
25249;SDS011;13201;51.148;13.738;2022-08-30T04:42:41;7.18;;;3.45;;
25249;SDS011;13201;51.148;13.738;2022-08-30T04:45:11;8.98;;;3.83;;
25249;SDS011;13201;51.148;13.738;2022-08-30T04:47:39;9.05;;;3.95;;
25249;SDS011;13201;51.148;13.738;2022-08-30T04:50:06;8.82;;;3.80;;
25249;SDS011;13201;51.148;13.738;2022-08-30T04:52:33;9.88;;;4.15;;
25249;SDS011;13201;51.148;13.738;2022-08-30T04:54:59;11.57;;;4.35;;
25249;SDS011;13201;51.148;13.738;2022-08-30T04:57:25;7.68;;;3.75;;
25249;SDS011;13201;51.148;13.738;2022-08-30T04:59:52;8.60;;;4.43;;
25249;SDS011;13201;51.148;13.738;2022-08-30T05:02:18;5.50;;;3.47;;
25249;SDS011;13201;51.148;13.738;2022-08-30T05:04:44;7.10;;;3.70;;
25249;SDS011;13201;51.148;13.738;2022-08-30T05:07:29;11.85;;;4.50;;
25249;SDS011;13201;51.148;13.738;2022-08-30T05:09:55;8.48;;;4.00;;
25249;SDS011;13201;51.148;13.738;2022-08-30T05:12:21;9.00;;;3.78;;
25249;SDS011;13201;51.148;13.738;2022-08-30T05:14:47;9.13;;;4.78;;
25249;SDS011;13201;51.148;13.738;2022-08-30T05:17:14;7.85;;;4.30;;
25249;SDS011;13201;51.148;13.738;2022-08-30T05:19:39;8.82;;;4.43;;
25249;SDS011;13201;51.148;13.738;2022-08-30T05:22:05;9.32;;;4.00;;
25249;SDS011;13201;51.148;13.738;2022-08-30T05:24:31;7.68;;;4.15;;
25249;SDS011;13201;51.148;13.738;2022-08-30T05:26:57;9.15;;;4.18;;
25249;SDS011;13201;51.148;13.738;2022-08-30T05:29:23;9.65;;;4.20;;
25249;SDS011;13201;51.148;13.738;2022-08-30T05:31:48;7.70;;;3.90;;
25249;SDS011;13201;51.148;13.738;2022-08-30T05:34:14;6.78;;;3.80;;
25249;SDS011;13201;51.148;13.738;2022-08-30T05:36:40;6.47;;;3.17;;
25249;SDS011;13201;51.148;13.738;2022-08-30T05:39:06;5.50;;;3.33;;
25249;SDS011;13201;51.148;13.738;2022-08-30T05:41:33;7.75;;;3.70;;
25249;SDS011;13201;51.148;13.738;2022-08-30T05:44:00;7.47;;;3.75;;
25249;SDS011;13201;51.148;13.738;2022-08-30T05:46:27;6.75;;;3.90;;
25249;SDS011;13201;51.148;13.738;2022-08-30T05:48:57;7.38;;;3.97;;
25249;SDS011;13201;51.148;13.738;2022-08-30T05:51:25;7.00;;;3.88;;
25249;SDS011;13201;51.148;13.738;2022-08-30T05:53:53;10.13;;;4.45;;
25249;SDS011;13201;51.148;13.738;2022-08-30T05:56:22;8.52;;;4.68;;
25249;SDS011;13201;51.148;13.738;2022-08-30T05:58:49;5.47;;;3.90;;
25249;SDS011;13201;51.148;13.738;2022-08-30T06:01:19;8.85;;;4.20;;
25249;SDS011;13201;51.148;13.738;2022-08-30T06:03:50;5.68;;;4.10;;
25249;SDS011;13201;51.148;13.738;2022-08-30T06:06:16;6.38;;;4.28;;
25249;SDS011;13201;51.148;13.738;2022-08-30T06:08:42;7.75;;;4.15;;
25249;SDS011;13201;51.148;13.738;2022-08-30T06:11:10;9.57;;;4.07;;
25249;SDS011;13201;51.148;13.738;2022-08-30T06:16:02;6.57;;;3.63;;
25249;SDS011;13201;51.148;13.738;2022-08-30T06:18:28;9.15;;;4.20;;
25249;SDS011;13201;51.148;13.738;2022-08-30T06:20:55;10.50;;;4.50;;
25249;SDS011;13201;51.148;13.738;2022-08-30T06:23:21;7.32;;;4.10;;
25249;SDS011;13201;51.148;13.738;2022-08-30T06:25:46;9.70;;;4.07;;
25249;SDS011;13201;51.148;13.738;2022-08-30T06:28:12;9.10;;;4.30;;
25249;SDS011;13201;51.148;13.738;2022-08-30T06:30:39;8.13;;;3.70;;
25249;SDS011;13201;51.148;13.738;2022-08-30T06:33:06;5.15;;;3.78;;
25249;SDS011;13201;51.148;13.738;2022-08-30T06:35:32;7.70;;;3.90;;
25249;SDS011;13201;51.148;13.738;2022-08-30T06:37:58;6.65;;;3.88;;
25249;SDS011;13201;51.148;13.738;2022-08-30T06:40:24;6.90;;;3.88;;
25249;SDS011;13201;51.148;13.738;2022-08-30T06:42:49;5.72;;;4.05;;
25249;SDS011;13201;51.148;13.738;2022-08-30T06:45:15;8.32;;;4.30;;
25249;SDS011;13201;51.148;13.738;2022-08-30T06:47:42;8.00;;;4.25;;
25249;SDS011;13201;51.148;13.738;2022-08-30T06:50:09;14.43;;;4.07;;
25249;SDS011;13201;51.148;13.738;2022-08-30T06:52:36;5.45;;;3.88;;
25249;SDS011;13201;51.148;13.738;2022-08-30T06:55:02;7.28;;;4.10;;
25249;SDS011;13201;51.148;13.738;2022-08-30T06:57:28;7.28;;;4.18;;
25249;SDS011;13201;51.148;13.738;2022-08-30T06:59:57;7.20;;;4.15;;
25249;SDS011;13201;51.148;13.738;2022-08-30T07:02:23;8.75;;;4.28;;
25249;SDS011;13201;51.148;13.738;2022-08-30T07:04:49;6.20;;;3.80;;
25249;SDS011;13201;51.148;13.738;2022-08-30T07:07:15;7.63;;;4.40;;
25249;SDS011;13201;51.148;13.738;2022-08-30T07:09:41;6.88;;;4.10;;
25249;SDS011;13201;51.148;13.738;2022-08-30T07:12:08;8.50;;;4.57;;
25249;SDS011;13201;51.148;13.738;2022-08-30T07:14:35;5.97;;;4.00;;
25249;SDS011;13201;51.148;13.738;2022-08-30T07:17:00;6.00;;;4.13;;
25249;SDS011;13201;51.148;13.738;2022-08-30T07:19:26;7.35;;;4.20;;
25249;SDS011;13201;51.148;13.738;2022-08-30T07:21:52;10.40;;;4.53;;
25249;SDS011;13201;51.148;13.738;2022-08-30T07:24:18;8.60;;;4.07;;
25249;SDS011;13201;51.148;13.738;2022-08-30T07:26:45;5.90;;;4.50;;
25249;SDS011;13201;51.148;13.738;2022-08-30T07:29:14;8.15;;;4.07;;
25249;SDS011;13201;51.148;13.738;2022-08-30T07:31:41;7.15;;;4.07;;
25249;SDS011;13201;51.148;13.738;2022-08-30T07:34:07;7.70;;;3.65;;
25249;SDS011;13201;51.148;13.738;2022-08-30T07:36:34;7.20;;;4.03;;
25249;SDS011;13201;51.148;13.738;2022-08-30T07:39:00;8.75;;;3.85;;
25249;SDS011;13201;51.148;13.738;2022-08-30T07:41:28;8.27;;;4.30;;
25249;SDS011;13201;51.148;13.738;2022-08-30T07:43:57;6.18;;;4.10;;
25249;SDS011;13201;51.148;13.738;2022-08-30T07:46:24;9.73;;;4.43;;
25249;SDS011;13201;51.148;13.738;2022-08-30T07:48:50;7.20;;;3.88;;
25249;SDS011;13201;51.148;13.738;2022-08-30T07:51:18;8.25;;;4.45;;
25249;SDS011;13201;51.148;13.738;2022-08-30T07:53:47;5.70;;;4.00;;
25249;SDS011;13201;51.148;13.738;2022-08-30T07:56:13;6.40;;;4.20;;
25249;SDS011;13201;51.148;13.738;2022-08-30T07:58:39;10.10;;;4.60;;
25249;SDS011;13201;51.148;13.738;2022-08-30T08:01:05;5.43;;;3.85;;
25249;SDS011;13201;51.148;13.738;2022-08-30T08:03:32;10.98;;;4.03;;
25249;SDS011;13201;51.148;13.738;2022-08-30T08:10:51;5.93;;;3.97;;
25249;SDS011;13201;51.148;13.738;2022-08-30T08:13:17;5.78;;;3.40;;
25249;SDS011;13201;51.148;13.738;2022-08-30T08:15:43;5.20;;;3.70;;
25249;SDS011;13201;51.148;13.738;2022-08-30T08:18:08;6.55;;;3.92;;
25249;SDS011;13201;51.148;13.738;2022-08-30T08:20:34;7.72;;;4.20;;
25249;SDS011;13201;51.148;13.738;2022-08-30T08:23:00;9.13;;;4.60;;
25249;SDS011;13201;51.148;13.738;2022-08-30T08:25:27;9.70;;;4.30;;
25249;SDS011;13201;51.148;13.738;2022-08-30T08:27:53;8.18;;;4.25;;
25249;SDS011;13201;51.148;13.738;2022-08-30T08:30:19;8.25;;;4.43;;
25249;SDS011;13201;51.148;13.738;2022-08-30T08:35:12;9.07;;;4.05;;
25249;SDS011;13201;51.148;13.738;2022-08-30T08:37:39;6.85;;;4.10;;
25249;SDS011;13201;51.148;13.738;2022-08-30T08:40:06;7.05;;;4.47;;
25249;SDS011;13201;51.148;13.738;2022-08-30T08:42:44;9.65;;;4.82;;
25249;SDS011;13201;51.148;13.738;2022-08-30T08:45:41;7.85;;;4.45;;
25249;SDS011;13201;51.148;13.738;2022-08-30T08:48:42;8.90;;;5.03;;
25249;SDS011;13201;51.148;13.738;2022-08-30T08:51:11;7.65;;;4.00;;
25249;SDS011;13201;51.148;13.738;2022-08-30T08:54:03;10.13;;;4.43;;
25249;SDS011;13201;51.148;13.738;2022-08-30T08:56:32;5.40;;;3.67;;
25249;SDS011;13201;51.148;13.738;2022-08-30T08:58:58;5.27;;;3.60;;
25249;SDS011;13201;51.148;13.738;2022-08-30T09:01:25;4.80;;;3.72;;
25249;SDS011;13201;51.148;13.738;2022-08-30T09:03:57;8.68;;;4.32;;
25249;SDS011;13201;51.148;13.738;2022-08-30T09:06:31;7.53;;;3.83;;
25249;SDS011;13201;51.148;13.738;2022-08-30T09:09:00;5.20;;;3.50;;
25249;SDS011;13201;51.148;13.738;2022-08-30T09:11:27;6.20;;;3.40;;
25249;SDS011;13201;51.148;13.738;2022-08-30T09:13:54;7.85;;;3.42;;
25249;SDS011;13201;51.148;13.738;2022-08-30T09:19:27;5.45;;;3.58;;
25249;SDS011;13201;51.148;13.738;2022-08-30T09:25:37;5.50;;;3.80;;
25249;SDS011;13201;51.148;13.738;2022-08-30T09:27:54;5.43;;;3.30;;
25249;SDS011;13201;51.148;13.738;2022-08-30T09:30:35;7.22;;;3.00;;
25249;SDS011;13201;51.148;13.738;2022-08-30T09:33:02;5.37;;;2.90;;
25249;SDS011;13201;51.148;13.738;2022-08-30T09:38:03;6.00;;;3.33;;
25249;SDS011;13201;51.148;13.738;2022-08-30T09:42:58;4.53;;;2.92;;
25249;SDS011;13201;51.148;13.738;2022-08-30T09:45:31;6.97;;;2.80;;
25249;SDS011;13201;51.148;13.738;2022-08-30T09:48:00;4.95;;;2.70;;
25249;SDS011;13201;51.148;13.738;2022-08-30T09:50:44;4.88;;;2.92;;
25249;SDS011;13201;51.148;13.738;2022-08-30T09:57:00;5.43;;;2.95;;
25249;SDS011;13201;51.148;13.738;2022-08-30T10:01:46;6.00;;;2.65;;
25249;SDS011;13201;51.148;13.738;2022-08-30T10:07:24;7.05;;;2.67;;
25249;SDS011;13201;51.148;13.738;2022-08-30T10:10:06;3.22;;;2.45;;
25249;SDS011;13201;51.148;13.738;2022-08-30T10:16:24;3.53;;;2.40;;
25249;SDS011;13201;51.148;13.738;2022-08-30T10:21:52;4.65;;;2.50;;
25249;SDS011;13201;51.148;13.738;2022-08-30T10:24:47;5.30;;;2.80;;
25249;SDS011;13201;51.148;13.738;2022-08-30T10:27:24;4.53;;;2.65;;
25249;SDS011;13201;51.148;13.738;2022-08-30T10:29:54;3.53;;;2.50;;
25249;SDS011;13201;51.148;13.738;2022-08-30T10:35:21;3.63;;;2.70;;
25249;SDS011;13201;51.148;13.738;2022-08-30T10:38:05;4.65;;;2.75;;
25249;SDS011;13201;51.148;13.738;2022-08-30T10:40:58;2.33;;;2.10;;
25249;SDS011;13201;51.148;13.738;2022-08-30T10:49:18;4.70;;;2.42;;
25249;SDS011;13201;51.148;13.738;2022-08-30T10:57:18;2.95;;;2.33;;
25249;SDS011;13201;51.148;13.738;2022-08-30T10:59:47;5.43;;;2.53;;
25249;SDS011;13201;51.148;13.738;2022-08-30T11:02:25;5.68;;;2.85;;
25249;SDS011;13201;51.148;13.738;2022-08-30T11:08:04;3.58;;;2.22;;
25249;SDS011;13201;51.148;13.738;2022-08-30T11:10:47;3.13;;;2.53;;
25249;SDS011;13201;51.148;13.738;2022-08-30T11:13:21;4.18;;;2.55;;
25249;SDS011;13201;51.148;13.738;2022-08-30T11:18:21;3.85;;;2.10;;
25249;SDS011;13201;51.148;13.738;2022-08-30T11:20:53;3.17;;;2.55;;
25249;SDS011;13201;51.148;13.738;2022-08-30T11:23:39;3.55;;;2.28;;
25249;SDS011;13201;51.148;13.738;2022-08-30T11:26:06;2.30;;;2.10;;
25249;SDS011;13201;51.148;13.738;2022-08-30T11:31:30;4.63;;;2.30;;
25249;SDS011;13201;51.148;13.738;2022-08-30T11:34:01;3.67;;;2.25;;
25249;SDS011;13201;51.148;13.738;2022-08-30T11:44:33;4.05;;;2.53;;
25249;SDS011;13201;51.148;13.738;2022-08-30T11:46:59;5.80;;;2.47;;
25249;SDS011;13201;51.148;13.738;2022-08-30T11:57:34;5.22;;;2.90;;
25249;SDS011;13201;51.148;13.738;2022-08-30T12:00:10;4.53;;;2.70;;
25249;SDS011;13201;51.148;13.738;2022-08-30T12:03:04;3.92;;;2.53;;
25249;SDS011;13201;51.148;13.738;2022-08-30T12:08:03;3.28;;;2.38;;
25249;SDS011;13201;51.148;13.738;2022-08-30T12:13:09;4.55;;;2.58;;
25249;SDS011;13201;51.148;13.738;2022-08-30T12:16:17;10.85;;;5.43;;
25249;SDS011;13201;51.148;13.738;2022-08-30T12:29:08;4.60;;;2.80;;
25249;SDS011;13201;51.148;13.738;2022-08-30T12:31:41;3.33;;;2.50;;
25249;SDS011;13201;51.148;13.738;2022-08-30T12:34:15;4.15;;;2.75;;
25249;SDS011;13201;51.148;13.738;2022-08-30T12:39:47;5.97;;;2.67;;
25249;SDS011;13201;51.148;13.738;2022-08-30T12:42:24;6.07;;;2.70;;
25249;SDS011;13201;51.148;13.738;2022-08-30T12:44:53;3.50;;;2.50;;
25249;SDS011;13201;51.148;13.738;2022-08-30T12:47:29;3.30;;;2.53;;
25249;SDS011;13201;51.148;13.738;2022-08-30T12:50:09;4.28;;;2.67;;
25249;SDS011;13201;51.148;13.738;2022-08-30T12:52:40;2.63;;;2.38;;
25249;SDS011;13201;51.148;13.738;2022-08-30T12:57:38;3.50;;;2.35;;
25249;SDS011;13201;51.148;13.738;2022-08-30T13:00:07;4.43;;;2.60;;
25249;SDS011;13201;51.148;13.738;2022-08-30T13:02:43;4.95;;;2.45;;
25249;SDS011;13201;51.148;13.738;2022-08-30T13:13:51;3.10;;;2.38;;
25249;SDS011;13201;51.148;13.738;2022-08-30T13:18:45;4.25;;;2.42;;
25249;SDS011;13201;51.148;13.738;2022-08-30T13:23:45;3.05;;;2.22;;
25249;SDS011;13201;51.148;13.738;2022-08-30T13:26:12;3.88;;;2.30;;
25249;SDS011;13201;51.148;13.738;2022-08-30T13:28:41;4.00;;;2.22;;
25249;SDS011;13201;51.148;13.738;2022-08-30T13:31:15;3.85;;;2.20;;
25249;SDS011;13201;51.148;13.738;2022-08-30T13:33:40;4.60;;;2.13;;
25249;SDS011;13201;51.148;13.738;2022-08-30T13:36:09;6.25;;;2.38;;
25249;SDS011;13201;51.148;13.738;2022-08-30T13:38:35;3.45;;;2.40;;
25249;SDS011;13201;51.148;13.738;2022-08-30T13:41:01;4.00;;;2.27;;
25249;SDS011;13201;51.148;13.738;2022-08-30T13:43:27;2.30;;;2.10;;
25249;SDS011;13201;51.148;13.738;2022-08-30T13:45:52;6.57;;;1.98;;
25249;SDS011;13201;51.148;13.738;2022-08-30T13:48:18;4.63;;;2.50;;
25249;SDS011;13201;51.148;13.738;2022-08-30T13:50:44;2.47;;;1.95;;
25249;SDS011;13201;51.148;13.738;2022-08-30T13:53:09;3.55;;;1.70;;
25249;SDS011;13201;51.148;13.738;2022-08-30T13:55:36;2.45;;;1.80;;
25249;SDS011;13201;51.148;13.738;2022-08-30T13:58:02;5.18;;;2.30;;
25249;SDS011;13201;51.148;13.738;2022-08-30T14:00:28;2.70;;;2.05;;
25249;SDS011;13201;51.148;13.738;2022-08-30T14:02:54;2.33;;;1.80;;
25249;SDS011;13201;51.148;13.738;2022-08-30T14:05:20;3.17;;;1.90;;
25249;SDS011;13201;51.148;13.738;2022-08-30T14:07:54;3.03;;;1.90;;
25249;SDS011;13201;51.148;13.738;2022-08-30T14:10:20;2.60;;;1.95;;
25249;SDS011;13201;51.148;13.738;2022-08-30T14:12:50;9.10;;;5.18;;
25249;SDS011;13201;51.148;13.738;2022-08-30T14:15:16;5.30;;;3.80;;
25249;SDS011;13201;51.148;13.738;2022-08-30T14:17:42;2.73;;;2.33;;
25249;SDS011;13201;51.148;13.738;2022-08-30T14:20:07;2.50;;;1.80;;
25249;SDS011;13201;51.148;13.738;2022-08-30T14:22:33;2.33;;;1.87;;
25249;SDS011;13201;51.148;13.738;2022-08-30T14:24:59;5.22;;;2.40;;
25249;SDS011;13201;51.148;13.738;2022-08-30T14:27:28;2.13;;;1.90;;
25249;SDS011;13201;51.148;13.738;2022-08-30T14:29:54;3.78;;;1.90;;
25249;SDS011;13201;51.148;13.738;2022-08-30T14:32:20;2.57;;;2.00;;
25249;SDS011;13201;51.148;13.738;2022-08-30T14:34:46;2.33;;;1.83;;
25249;SDS011;13201;51.148;13.738;2022-08-30T14:37:11;1.80;;;1.60;;
25249;SDS011;13201;51.148;13.738;2022-08-30T14:39:37;3.40;;;1.77;;
25249;SDS011;13201;51.148;13.738;2022-08-30T14:42:03;2.43;;;1.97;;
25249;SDS011;13201;51.148;13.738;2022-08-30T14:44:29;6.93;;;2.10;;
25249;SDS011;13201;51.148;13.738;2022-08-30T14:46:55;2.03;;;1.87;;
25249;SDS011;13201;51.148;13.738;2022-08-30T14:49:21;2.10;;;1.90;;
25249;SDS011;13201;51.148;13.738;2022-08-30T14:54:14;2.37;;;2.00;;
25249;SDS011;13201;51.148;13.738;2022-08-30T14:59:06;3.25;;;2.05;;
25249;SDS011;13201;51.148;13.738;2022-08-30T15:01:32;2.75;;;1.95;;
25249;SDS011;13201;51.148;13.738;2022-08-30T15:03:58;2.00;;;1.80;;
25249;SDS011;13201;51.148;13.738;2022-08-30T15:06:24;5.07;;;2.33;;
25249;SDS011;13201;51.148;13.738;2022-08-30T15:08:50;3.53;;;1.87;;
25249;SDS011;13201;51.148;13.738;2022-08-30T15:11:18;4.00;;;2.00;;
25249;SDS011;13201;51.148;13.738;2022-08-30T15:13:45;3.60;;;1.83;;
25249;SDS011;13201;51.148;13.738;2022-08-30T15:16:16;2.20;;;1.90;;
25249;SDS011;13201;51.148;13.738;2022-08-30T15:18:41;3.22;;;1.77;;
25249;SDS011;13201;51.148;13.738;2022-08-30T15:21:07;3.28;;;1.85;;
25249;SDS011;13201;51.148;13.738;2022-08-30T15:23:34;2.45;;;2.08;;
25249;SDS011;13201;51.148;13.738;2022-08-30T15:26:00;1.95;;;1.70;;
25249;SDS011;13201;51.148;13.738;2022-08-30T15:28:26;3.00;;;1.83;;
25249;SDS011;13201;51.148;13.738;2022-08-30T15:30:52;3.30;;;1.83;;
25249;SDS011;13201;51.148;13.738;2022-08-30T15:33:19;2.17;;;1.98;;
25249;SDS011;13201;51.148;13.738;2022-08-30T15:35:46;2.20;;;1.80;;
25249;SDS011;13201;51.148;13.738;2022-08-30T15:38:16;2.38;;;1.80;;
25249;SDS011;13201;51.148;13.738;2022-08-30T15:40:44;3.05;;;1.80;;
25249;SDS011;13201;51.148;13.738;2022-08-30T15:43:12;18.48;;;10.73;;
25249;SDS011;13201;51.148;13.738;2022-08-30T15:45:38;3.80;;;2.57;;
25249;SDS011;13201;51.148;13.738;2022-08-30T15:48:03;2.33;;;1.70;;
25249;SDS011;13201;51.148;13.738;2022-08-30T15:50:29;2.80;;;2.00;;
25249;SDS011;13201;51.148;13.738;2022-08-30T15:52:55;2.33;;;2.00;;
25249;SDS011;13201;51.148;13.738;2022-08-30T15:55:20;3.80;;;2.57;;
25249;SDS011;13201;51.148;13.738;2022-08-30T15:57:46;2.60;;;1.93;;
25249;SDS011;13201;51.148;13.738;2022-08-30T16:00:12;2.70;;;1.93;;
25249;SDS011;13201;51.148;13.738;2022-08-30T16:02:38;3.50;;;2.10;;
25249;SDS011;13201;51.148;13.738;2022-08-30T16:05:04;2.87;;;1.97;;
25249;SDS011;13201;51.148;13.738;2022-08-30T16:07:30;3.60;;;1.60;;
25249;SDS011;13201;51.148;13.738;2022-08-30T16:09:55;2.80;;;2.07;;
25249;SDS011;13201;51.148;13.738;2022-08-30T16:12:21;2.67;;;1.77;;
25249;SDS011;13201;51.148;13.738;2022-08-30T16:14:46;2.83;;;1.70;;
25249;SDS011;13201;51.148;13.738;2022-08-30T16:17:12;2.00;;;1.60;;
25249;SDS011;13201;51.148;13.738;2022-08-30T16:19:38;3.77;;;2.00;;
25249;SDS011;13201;51.148;13.738;2022-08-30T16:22:04;5.63;;;2.70;;
25249;SDS011;13201;51.148;13.738;2022-08-30T16:24:29;5.03;;;3.50;;
25249;SDS011;13201;51.148;13.738;2022-08-30T16:26:55;3.73;;;2.20;;
25249;SDS011;13201;51.148;13.738;2022-08-30T16:29:21;3.60;;;2.00;;
25249;SDS011;13201;51.148;13.738;2022-08-30T16:31:47;2.83;;;1.80;;
25249;SDS011;13201;51.148;13.738;2022-08-30T16:34:13;2.40;;;1.80;;
25249;SDS011;13201;51.148;13.738;2022-08-30T16:36:40;2.85;;;1.65;;
25249;SDS011;13201;51.148;13.738;2022-08-30T16:39:07;2.17;;;1.77;;
25249;SDS011;13201;51.148;13.738;2022-08-30T16:41:33;2.85;;;1.83;;
25249;SDS011;13201;51.148;13.738;2022-08-30T16:43:59;2.08;;;1.63;;
25249;SDS011;13201;51.148;13.738;2022-08-30T16:46:25;2.87;;;1.80;;
25249;SDS011;13201;51.148;13.738;2022-08-30T16:48:50;1.87;;;1.50;;
25249;SDS011;13201;51.148;13.738;2022-08-30T16:51:18;3.77;;;1.60;;
25249;SDS011;13201;51.148;13.738;2022-08-30T16:53:45;2.47;;;1.75;;
25249;SDS011;13201;51.148;13.738;2022-08-30T16:56:13;4.88;;;1.67;;
25249;SDS011;13201;51.148;13.738;2022-08-30T16:58:44;1.98;;;1.52;;
25249;SDS011;13201;51.148;13.738;2022-08-30T17:03:36;4.35;;;1.42;;
25249;SDS011;13201;51.148;13.738;2022-08-30T17:06:02;1.60;;;1.50;;
25249;SDS011;13201;51.148;13.738;2022-08-30T17:08:28;2.10;;;1.70;;